Terminal Aerodrome Forecast
Issued by NWS Wichita, KS

Home | Current Version | Previous Version | Graphics & Text | Print | Product List | Glossary On
Versions: 1 2 3 4 5 6 7 8 9 10 11 12 13 14 15 16
682
FTUS43 KICT 142110 AAC
TAFICT
TAF AMD
KICT 142110Z 1421/1518 21014G23KT P6SM VCTS BKN060CB
      TEMPO 1421/1501 VRB20G40KT 3SM +TSRA OVC050CB
     FM150100 33027G37KT P6SM BKN090
     FM151100 34016G23KT P6SM SKC=

USA.gov is the U.S. government's official web portal to all federal, state and local government web resources and services.